Disclaimer

Please do not use the information listed here in-flight or in-navigation, as they are not provided to us by the airports but are provided by volunteers, so they might be outdated.

Search


Regions


Airport information page

Radio informations:
Tower (TWR) - 122.4 MHz

Airport informations:
Latitude: 40° 33' 44.00" N
Longitude: 043° 06' 54.01" E
Elevation: 5889 feet - 1795 meters
Operating hours: Remarks
Operating agency: Civil government, landing fees and diplomatic clearance may be required
Timezone: UTC+2(+3DT) - Dates notified by NOTAM
Fuel: Unknown fuel type or whether there is any fuel.

Runway information:
06/24 - 11483 x 148 feet< - >3500 x 45 meters

Recent METARs:
LTCF 211050Z 25013KT 9999 BKN035 BKN070 08/M01 Q1016
LTCF 211050Z 25013KT 9999 BKN035 BKN070 08/M01 Q1016
LTCF 211150Z 24014KT 9999 SCT035 08/M01 Q1016

Airport on the map: